sensor_id;sensor_type;location;lat;lon;timestamp;P1;durP1;ratioP1;P2;durP2;ratioP2
74898;SDS011;63458;48.210;16.338;2023-03-03T00:00:15;21.13;;;13.30;;
74898;SDS011;63458;48.210;16.338;2023-03-03T00:02:42;20.77;;;13.48;;
74898;SDS011;63458;48.210;16.338;2023-03-03T00:05:08;21.38;;;12.90;;
74898;SDS011;63458;48.210;16.338;2023-03-03T00:07:34;21.45;;;12.38;;
74898;SDS011;63458;48.210;16.338;2023-03-03T00:10:00;21.02;;;12.75;;
74898;SDS011;63458;48.210;16.338;2023-03-03T00:12:27;19.88;;;13.65;;
74898;SDS011;63458;48.210;16.338;2023-03-03T00:14:54;23.95;;;14.93;;
74898;SDS011;63458;48.210;16.338;2023-03-03T00:17:24;21.40;;;13.07;;
74898;SDS011;63458;48.210;16.338;2023-03-03T00:19:50;21.88;;;12.40;;
74898;SDS011;63458;48.210;16.338;2023-03-03T00:22:30;20.20;;;12.80;;
74898;SDS011;63458;48.210;16.338;2023-03-03T00:25:38;22.73;;;13.98;;
74898;SDS011;63458;48.210;16.338;2023-03-03T00:27:45;25.15;;;14.77;;
74898;SDS011;63458;48.210;16.338;2023-03-03T00:30:16;28.20;;;14.27;;
74898;SDS011;63458;48.210;16.338;2023-03-03T00:32:43;24.02;;;14.38;;
74898;SDS011;63458;48.210;16.338;2023-03-03T00:37:58;23.27;;;14.52;;
74898;SDS011;63458;48.210;16.338;2023-03-03T00:40:35;22.40;;;13.30;;
74898;SDS011;63458;48.210;16.338;2023-03-03T00:43:11;24.40;;;13.82;;
74898;SDS011;63458;48.210;16.338;2023-03-03T00:48:15;20.67;;;13.57;;
74898;SDS011;63458;48.210;16.338;2023-03-03T00:50:43;24.27;;;13.73;;
74898;SDS011;63458;48.210;16.338;2023-03-03T00:53:16;22.48;;;13.63;;
74898;SDS011;63458;48.210;16.338;2023-03-03T00:55:43;22.33;;;12.60;;
74898;SDS011;63458;48.210;16.338;2023-03-03T00:58:09;23.02;;;14.65;;
74898;SDS011;63458;48.210;16.338;2023-03-03T01:00:36;25.88;;;14.07;;
74898;SDS011;63458;48.210;16.338;2023-03-03T01:03:03;21.25;;;12.88;;
74898;SDS011;63458;48.210;16.338;2023-03-03T01:05:30;25.27;;;13.48;;
74898;SDS011;63458;48.210;16.338;2023-03-03T01:07:56;21.35;;;12.38;;
74898;SDS011;63458;48.210;16.338;2023-03-03T01:10:22;21.80;;;13.48;;
74898;SDS011;63458;48.210;16.338;2023-03-03T01:12:48;21.80;;;13.82;;
74898;SDS011;63458;48.210;16.338;2023-03-03T01:15:14;22.00;;;13.23;;
74898;SDS011;63458;48.210;16.338;2023-03-03T01:17:41;21.33;;;13.57;;
74898;SDS011;63458;48.210;16.338;2023-03-03T01:20:08;23.52;;;12.98;;
74898;SDS011;63458;48.210;16.338;2023-03-03T01:22:34;21.10;;;13.55;;
74898;SDS011;63458;48.210;16.338;2023-03-03T01:25:00;23.70;;;13.43;;
74898;SDS011;63458;48.210;16.338;2023-03-03T01:27:28;20.98;;;12.73;;
74898;SDS011;63458;48.210;16.338;2023-03-03T01:29:54;23.02;;;12.43;;
74898;SDS011;63458;48.210;16.338;2023-03-03T01:32:21;21.17;;;12.73;;
74898;SDS011;63458;48.210;16.338;2023-03-03T01:34:47;22.92;;;12.43;;
74898;SDS011;63458;48.210;16.338;2023-03-03T01:37:13;20.58;;;12.55;;
74898;SDS011;63458;48.210;16.338;2023-03-03T01:39:39;22.23;;;12.70;;
74898;SDS011;63458;48.210;16.338;2023-03-03T01:42:05;22.23;;;13.10;;
74898;SDS011;63458;48.210;16.338;2023-03-03T01:44:32;25.33;;;14.68;;
74898;SDS011;63458;48.210;16.338;2023-03-03T01:47:11;24.25;;;13.70;;
74898;SDS011;63458;48.210;16.338;2023-03-03T01:49:46;22.40;;;14.00;;
74898;SDS011;63458;48.210;16.338;2023-03-03T01:54:45;22.92;;;14.85;;
74898;SDS011;63458;48.210;16.338;2023-03-03T01:57:14;25.52;;;16.48;;
74898;SDS011;63458;48.210;16.338;2023-03-03T01:59:43;22.98;;;14.70;;
74898;SDS011;63458;48.210;16.338;2023-03-03T02:02:10;23.05;;;14.02;;
74898;SDS011;63458;48.210;16.338;2023-03-03T02:04:36;25.05;;;14.90;;
74898;SDS011;63458;48.210;16.338;2023-03-03T02:07:04;24.27;;;13.52;;
74898;SDS011;63458;48.210;16.338;2023-03-03T02:09:53;22.75;;;14.00;;
74898;SDS011;63458;48.210;16.338;2023-03-03T02:12:20;21.30;;;13.50;;
74898;SDS011;63458;48.210;16.338;2023-03-03T02:14:47;25.33;;;13.95;;
74898;SDS011;63458;48.210;16.338;2023-03-03T02:17:13;23.80;;;13.93;;
74898;SDS011;63458;48.210;16.338;2023-03-03T02:19:45;26.65;;;13.75;;
74898;SDS011;63458;48.210;16.338;2023-03-03T02:22:13;25.00;;;14.15;;
74898;SDS011;63458;48.210;16.338;2023-03-03T02:24:58;25.63;;;14.63;;
74898;SDS011;63458;48.210;16.338;2023-03-03T02:27:25;25.35;;;15.50;;
74898;SDS011;63458;48.210;16.338;2023-03-03T02:29:52;26.35;;;14.02;;
74898;SDS011;63458;48.210;16.338;2023-03-03T02:32:18;24.48;;;14.27;;
74898;SDS011;63458;48.210;16.338;2023-03-03T02:34:45;27.42;;;15.65;;
74898;SDS011;63458;48.210;16.338;2023-03-03T02:37:12;31.35;;;16.38;;
74898;SDS011;63458;48.210;16.338;2023-03-03T02:39:38;32.53;;;16.80;;
74898;SDS011;63458;48.210;16.338;2023-03-03T02:42:20;28.13;;;16.63;;
74898;SDS011;63458;48.210;16.338;2023-03-03T02:44:48;27.73;;;17.50;;
74898;SDS011;63458;48.210;16.338;2023-03-03T02:47:15;30.20;;;16.30;;
74898;SDS011;63458;48.210;16.338;2023-03-03T02:49:41;27.20;;;16.17;;
74898;SDS011;63458;48.210;16.338;2023-03-03T02:52:08;27.50;;;17.40;;
74898;SDS011;63458;48.210;16.338;2023-03-03T02:54:34;27.52;;;16.58;;
74898;SDS011;63458;48.210;16.338;2023-03-03T02:57:01;26.00;;;15.98;;
74898;SDS011;63458;48.210;16.338;2023-03-03T02:59:27;30.38;;;16.70;;
74898;SDS011;63458;48.210;16.338;2023-03-03T03:01:53;26.30;;;15.82;;
74898;SDS011;63458;48.210;16.338;2023-03-03T03:04:20;28.35;;;16.20;;
74898;SDS011;63458;48.210;16.338;2023-03-03T03:06:47;29.10;;;16.30;;
74898;SDS011;63458;48.210;16.338;2023-03-03T03:09:13;30.95;;;16.63;;
74898;SDS011;63458;48.210;16.338;2023-03-03T03:11:39;28.48;;;18.10;;
74898;SDS011;63458;48.210;16.338;2023-03-03T03:14:07;31.67;;;17.20;;
74898;SDS011;63458;48.210;16.338;2023-03-03T03:16:33;28.50;;;17.08;;
74898;SDS011;63458;48.210;16.338;2023-03-03T03:18:59;28.58;;;17.10;;
74898;SDS011;63458;48.210;16.338;2023-03-03T03:21:26;29.35;;;16.95;;
74898;SDS011;63458;48.210;16.338;2023-03-03T03:23:52;30.15;;;16.98;;
74898;SDS011;63458;48.210;16.338;2023-03-03T03:26:18;30.00;;;16.90;;
74898;SDS011;63458;48.210;16.338;2023-03-03T03:28:45;29.90;;;17.17;;
74898;SDS011;63458;48.210;16.338;2023-03-03T03:31:11;31.40;;;19.50;;
74898;SDS011;63458;48.210;16.338;2023-03-03T03:33:37;30.75;;;18.42;;
74898;SDS011;63458;48.210;16.338;2023-03-03T03:36:03;30.23;;;17.92;;
74898;SDS011;63458;48.210;16.338;2023-03-03T03:38:30;34.30;;;19.67;;
74898;SDS011;63458;48.210;16.338;2023-03-03T03:40:57;32.72;;;18.63;;
74898;SDS011;63458;48.210;16.338;2023-03-03T03:43:23;34.25;;;21.20;;
74898;SDS011;63458;48.210;16.338;2023-03-03T03:45:49;32.58;;;20.58;;
74898;SDS011;63458;48.210;16.338;2023-03-03T03:48:16;31.23;;;18.27;;
74898;SDS011;63458;48.210;16.338;2023-03-03T03:53:09;26.08;;;16.23;;
74898;SDS011;63458;48.210;16.338;2023-03-03T03:55:35;25.65;;;15.68;;
74898;SDS011;63458;48.210;16.338;2023-03-03T03:58:01;29.35;;;16.52;;
74898;SDS011;63458;48.210;16.338;2023-03-03T04:00:27;27.00;;;16.27;;
74898;SDS011;63458;48.210;16.338;2023-03-03T04:02:53;24.65;;;15.85;;
74898;SDS011;63458;48.210;16.338;2023-03-03T04:05:19;27.90;;;18.33;;
74898;SDS011;63458;48.210;16.338;2023-03-03T04:07:46;28.00;;;16.80;;
74898;SDS011;63458;48.210;16.338;2023-03-03T04:10:12;27.35;;;18.00;;
74898;SDS011;63458;48.210;16.338;2023-03-03T04:12:38;32.38;;;18.25;;
74898;SDS011;63458;48.210;16.338;2023-03-03T04:17:30;27.90;;;17.85;;
74898;SDS011;63458;48.210;16.338;2023-03-03T04:19:56;29.52;;;16.75;;
74898;SDS011;63458;48.210;16.338;2023-03-03T04:22:22;23.90;;;14.93;;
74898;SDS011;63458;48.210;16.338;2023-03-03T04:24:48;25.98;;;14.98;;
74898;SDS011;63458;48.210;16.338;2023-03-03T04:27:14;31.25;;;17.75;;
74898;SDS011;63458;48.210;16.338;2023-03-03T04:29:40;52.30;;;31.90;;
74898;SDS011;63458;48.210;16.338;2023-03-03T04:32:07;39.10;;;23.65;;
74898;SDS011;63458;48.210;16.338;2023-03-03T04:34:33;30.58;;;19.30;;
74898;SDS011;63458;48.210;16.338;2023-03-03T04:36:59;26.67;;;17.45;;
74898;SDS011;63458;48.210;16.338;2023-03-03T04:39:26;30.05;;;17.40;;
74898;SDS011;63458;48.210;16.338;2023-03-03T04:41:52;28.00;;;17.25;;
74898;SDS011;63458;48.210;16.338;2023-03-03T04:44:18;28.25;;;17.05;;
74898;SDS011;63458;48.210;16.338;2023-03-03T04:46:44;32.58;;;19.02;;
74898;SDS011;63458;48.210;16.338;2023-03-03T04:49:10;30.60;;;19.85;;
74898;SDS011;63458;48.210;16.338;2023-03-03T04:51:36;32.20;;;19.83;;
74898;SDS011;63458;48.210;16.338;2023-03-03T04:54:02;33.70;;;20.40;;
74898;SDS011;63458;48.210;16.338;2023-03-03T04:56:29;32.92;;;20.02;;
74898;SDS011;63458;48.210;16.338;2023-03-03T04:58:56;32.63;;;20.48;;
74898;SDS011;63458;48.210;16.338;2023-03-03T05:01:22;50.08;;;30.52;;
74898;SDS011;63458;48.210;16.338;2023-03-03T05:03:48;51.05;;;32.33;;
74898;SDS011;63458;48.210;16.338;2023-03-03T05:06:14;39.90;;;24.52;;
74898;SDS011;63458;48.210;16.338;2023-03-03T05:08:42;40.22;;;23.58;;
74898;SDS011;63458;48.210;16.338;2023-03-03T05:11:08;38.13;;;22.70;;
74898;SDS011;63458;48.210;16.338;2023-03-03T05:13:34;36.13;;;22.75;;
74898;SDS011;63458;48.210;16.338;2023-03-03T05:16:01;38.08;;;21.40;;
74898;SDS011;63458;48.210;16.338;2023-03-03T05:18:27;36.28;;;21.88;;
74898;SDS011;63458;48.210;16.338;2023-03-03T05:20:53;41.78;;;27.08;;
74898;SDS011;63458;48.210;16.338;2023-03-03T05:23:19;36.47;;;22.10;;
74898;SDS011;63458;48.210;16.338;2023-03-03T05:25:46;35.75;;;19.65;;
74898;SDS011;63458;48.210;16.338;2023-03-03T05:28:12;30.85;;;19.27;;
74898;SDS011;63458;48.210;16.338;2023-03-03T05:30:38;32.15;;;19.05;;
74898;SDS011;63458;48.210;16.338;2023-03-03T05:33:04;29.88;;;17.98;;
74898;SDS011;63458;48.210;16.338;2023-03-03T05:35:30;32.42;;;19.35;;
74898;SDS011;63458;48.210;16.338;2023-03-03T05:37:56;32.92;;;18.15;;
74898;SDS011;63458;48.210;16.338;2023-03-03T05:40:23;28.55;;;16.60;;
74898;SDS011;63458;48.210;16.338;2023-03-03T05:42:49;30.70;;;17.65;;
74898;SDS011;63458;48.210;16.338;2023-03-03T05:45:15;31.38;;;17.38;;
74898;SDS011;63458;48.210;16.338;2023-03-03T05:47:44;32.28;;;17.40;;
74898;SDS011;63458;48.210;16.338;2023-03-03T05:50:10;27.10;;;16.30;;
74898;SDS011;63458;48.210;16.338;2023-03-03T05:52:37;31.88;;;17.00;;
74898;SDS011;63458;48.210;16.338;2023-03-03T05:55:03;32.90;;;17.25;;
74898;SDS011;63458;48.210;16.338;2023-03-03T05:57:29;28.27;;;17.55;;
74898;SDS011;63458;48.210;16.338;2023-03-03T05:59:55;29.70;;;18.08;;
74898;SDS011;63458;48.210;16.338;2023-03-03T06:02:21;33.60;;;19.60;;
74898;SDS011;63458;48.210;16.338;2023-03-03T06:04:47;32.90;;;20.08;;
74898;SDS011;63458;48.210;16.338;2023-03-03T06:07:13;38.10;;;21.50;;
74898;SDS011;63458;48.210;16.338;2023-03-03T06:09:39;45.25;;;25.08;;
74898;SDS011;63458;48.210;16.338;2023-03-03T06:12:06;35.17;;;21.25;;
74898;SDS011;63458;48.210;16.338;2023-03-03T06:14:32;35.25;;;20.73;;
74898;SDS011;63458;48.210;16.338;2023-03-03T06:16:58;34.25;;;20.48;;
74898;SDS011;63458;48.210;16.338;2023-03-03T06:19:24;35.53;;;20.98;;
74898;SDS011;63458;48.210;16.338;2023-03-03T06:21:51;32.78;;;21.30;;
74898;SDS011;63458;48.210;16.338;2023-03-03T06:24:17;38.92;;;21.70;;
74898;SDS011;63458;48.210;16.338;2023-03-03T06:26:43;37.20;;;21.50;;
74898;SDS011;63458;48.210;16.338;2023-03-03T06:29:09;34.92;;;21.75;;
74898;SDS011;63458;48.210;16.338;2023-03-03T06:31:35;41.15;;;25.58;;
74898;SDS011;63458;48.210;16.338;2023-03-03T06:34:01;37.08;;;23.17;;
74898;SDS011;63458;48.210;16.338;2023-03-03T06:36:27;36.25;;;21.73;;
74898;SDS011;63458;48.210;16.338;2023-03-03T06:38:53;38.20;;;23.35;;
74898;SDS011;63458;48.210;16.338;2023-03-03T06:41:19;49.40;;;27.23;;
74898;SDS011;63458;48.210;16.338;2023-03-03T06:43:45;41.08;;;24.63;;
74898;SDS011;63458;48.210;16.338;2023-03-03T06:46:11;42.05;;;25.73;;
74898;SDS011;63458;48.210;16.338;2023-03-03T06:48:38;45.65;;;27.65;;
74898;SDS011;63458;48.210;16.338;2023-03-03T06:51:09;44.25;;;26.40;;
74898;SDS011;63458;48.210;16.338;2023-03-03T06:53:39;46.83;;;28.38;;
74898;SDS011;63458;48.210;16.338;2023-03-03T06:56:07;48.00;;;28.25;;
74898;SDS011;63458;48.210;16.338;2023-03-03T06:58:33;48.30;;;28.90;;
74898;SDS011;63458;48.210;16.338;2023-03-03T07:01:00;48.45;;;29.75;;
74898;SDS011;63458;48.210;16.338;2023-03-03T07:03:32;49.58;;;30.40;;
74898;SDS011;63458;48.210;16.338;2023-03-03T07:05:59;46.83;;;30.80;;
74898;SDS011;63458;48.210;16.338;2023-03-03T07:08:26;49.13;;;31.42;;
74898;SDS011;63458;48.210;16.338;2023-03-03T07:10:54;53.85;;;32.50;;
74898;SDS011;63458;48.210;16.338;2023-03-03T07:15:47;51.47;;;31.58;;
74898;SDS011;63458;48.210;16.338;2023-03-03T07:18:22;51.25;;;30.83;;
74898;SDS011;63458;48.210;16.338;2023-03-03T07:20:50;47.25;;;31.27;;
74898;SDS011;63458;48.210;16.338;2023-03-03T07:23:23;50.72;;;29.98;;
74898;SDS011;63458;48.210;16.338;2023-03-03T07:25:50;48.35;;;30.05;;
74898;SDS011;63458;48.210;16.338;2023-03-03T07:28:29;52.05;;;34.42;;
74898;SDS011;63458;48.210;16.338;2023-03-03T07:30:57;53.13;;;31.75;;
74898;SDS011;63458;48.210;16.338;2023-03-03T07:33:27;48.08;;;31.45;;
74898;SDS011;63458;48.210;16.338;2023-03-03T07:35:55;48.75;;;30.48;;
74898;SDS011;63458;48.210;16.338;2023-03-03T07:38:34;45.83;;;29.80;;
74898;SDS011;63458;48.210;16.338;2023-03-03T07:41:02;46.15;;;29.27;;
74898;SDS011;63458;48.210;16.338;2023-03-03T07:43:42;50.10;;;32.22;;
74898;SDS011;63458;48.210;16.338;2023-03-03T07:46:34;51.40;;;30.63;;
74898;SDS011;63458;48.210;16.338;2023-03-03T07:49:01;48.08;;;29.67;;
74898;SDS011;63458;48.210;16.338;2023-03-03T07:51:38;46.85;;;30.05;;
74898;SDS011;63458;48.210;16.338;2023-03-03T07:56:38;46.83;;;28.80;;
74898;SDS011;63458;48.210;16.338;2023-03-03T07:59:47;47.35;;;30.20;;
74898;SDS011;63458;48.210;16.338;2023-03-03T08:01:54;45.55;;;29.85;;
74898;SDS011;63458;48.210;16.338;2023-03-03T08:12:01;40.38;;;27.38;;
74898;SDS011;63458;48.210;16.338;2023-03-03T08:14:34;44.55;;;28.67;;
74898;SDS011;63458;48.210;16.338;2023-03-03T08:17:01;44.35;;;29.40;;
74898;SDS011;63458;48.210;16.338;2023-03-03T08:19:28;42.33;;;27.67;;
74898;SDS011;63458;48.210;16.338;2023-03-03T08:21:58;40.85;;;28.40;;
74898;SDS011;63458;48.210;16.338;2023-03-03T08:24:25;42.72;;;29.30;;
74898;SDS011;63458;48.210;16.338;2023-03-03T08:26:51;44.47;;;27.45;;
74898;SDS011;63458;48.210;16.338;2023-03-03T08:29:17;41.03;;;27.58;;
74898;SDS011;63458;48.210;16.338;2023-03-03T08:31:43;44.22;;;27.33;;
74898;SDS011;63458;48.210;16.338;2023-03-03T08:34:09;40.47;;;28.05;;
74898;SDS011;63458;48.210;16.338;2023-03-03T08:36:35;41.30;;;29.63;;
74898;SDS011;63458;48.210;16.338;2023-03-03T08:39:02;41.47;;;27.83;;
74898;SDS011;63458;48.210;16.338;2023-03-03T08:41:28;38.97;;;27.42;;
74898;SDS011;63458;48.210;16.338;2023-03-03T08:43:54;39.03;;;28.85;;
74898;SDS011;63458;48.210;16.338;2023-03-03T08:46:20;43.63;;;29.17;;
74898;SDS011;63458;48.210;16.338;2023-03-03T08:48:46;122.72;;;72.28;;
74898;SDS011;63458;48.210;16.338;2023-03-03T08:51:13;201.52;;;120.68;;
74898;SDS011;63458;48.210;16.338;2023-03-03T08:53:39;145.32;;;91.35;;
74898;SDS011;63458;48.210;16.338;2023-03-03T08:56:05;108.63;;;64.03;;
74898;SDS011;63458;48.210;16.338;2023-03-03T08:58:32;66.95;;;44.53;;
74898;SDS011;63458;48.210;16.338;2023-03-03T09:00:58;120.38;;;75.78;;
74898;SDS011;63458;48.210;16.338;2023-03-03T09:03:24;74.43;;;46.78;;
74898;SDS011;63458;48.210;16.338;2023-03-03T09:05:50;64.82;;;42.78;;
74898;SDS011;63458;48.210;16.338;2023-03-03T09:08:16;43.60;;;30.52;;
74898;SDS011;63458;48.210;16.338;2023-03-03T09:10:42;40.35;;;26.08;;
74898;SDS011;63458;48.210;16.338;2023-03-03T09:13:13;38.72;;;25.40;;
74898;SDS011;63458;48.210;16.338;2023-03-03T09:15:39;50.15;;;31.75;;
74898;SDS011;63458;48.210;16.338;2023-03-03T09:20:41;43.97;;;28.85;;
74898;SDS011;63458;48.210;16.338;2023-03-03T09:25:35;44.05;;;29.13;;
74898;SDS011;63458;48.210;16.338;2023-03-03T09:28:02;38.47;;;27.25;;
74898;SDS011;63458;48.210;16.338;2023-03-03T09:33:18;43.17;;;29.13;;
74898;SDS011;63458;48.210;16.338;2023-03-03T09:35:45;43.40;;;28.73;;
74898;SDS011;63458;48.210;16.338;2023-03-03T09:40:49;43.83;;;28.65;;
74898;SDS011;63458;48.210;16.338;2023-03-03T09:51:39;35.47;;;25.77;;
74898;SDS011;63458;48.210;16.338;2023-03-03T09:54:10;36.67;;;26.23;;
74898;SDS011;63458;48.210;16.338;2023-03-03T09:56:43;36.88;;;23.92;;
74898;SDS011;63458;48.210;16.338;2023-03-03T09:59:30;35.63;;;24.20;;
74898;SDS011;63458;48.210;16.338;2023-03-03T10:02:03;33.72;;;23.25;;
74898;SDS011;63458;48.210;16.338;2023-03-03T10:04:42;35.38;;;23.35;;
74898;SDS011;63458;48.210;16.338;2023-03-03T10:17:32;35.17;;;23.25;;
74898;SDS011;63458;48.210;16.338;2023-03-03T10:51:30;33.47;;;22.27;;
74898;SDS011;63458;48.210;16.338;2023-03-03T11:06:45;34.53;;;22.48;;
74898;SDS011;63458;48.210;16.338;2023-03-03T11:11:46;30.20;;;21.45;;
74898;SDS011;63458;48.210;16.338;2023-03-03T11:14:20;30.65;;;21.02;;
74898;SDS011;63458;48.210;16.338;2023-03-03T11:19:28;30.55;;;21.48;;
74898;SDS011;63458;48.210;16.338;2023-03-03T11:40:31;28.23;;;20.45;;
74898;SDS011;63458;48.210;16.338;2023-03-03T11:43:09;29.10;;;20.75;;
74898;SDS011;63458;48.210;16.338;2023-03-03T11:45:42;28.00;;;20.23;;
74898;SDS011;63458;48.210;16.338;2023-03-03T11:48:21;28.38;;;20.67;;
74898;SDS011;63458;48.210;16.338;2023-03-03T11:50:51;28.52;;;21.27;;
74898;SDS011;63458;48.210;16.338;2023-03-03T11:53:23;29.38;;;21.33;;
74898;SDS011;63458;48.210;16.338;2023-03-03T11:55:59;30.13;;;20.23;;
74898;SDS011;63458;48.210;16.338;2023-03-03T11:58:29;28.77;;;20.15;;
74898;SDS011;63458;48.210;16.338;2023-03-03T12:13:52;28.30;;;20.35;;
74898;SDS011;63458;48.210;16.338;2023-03-03T12:19:11;31.70;;;24.00;;
74898;SDS011;63458;48.210;16.338;2023-03-03T12:21:44;30.23;;;23.52;;
74898;SDS011;63458;48.210;16.338;2023-03-03T12:34:31;28.35;;;22.45;;
74898;SDS011;63458;48.210;16.338;2023-03-03T12:45:21;29.08;;;21.27;;
74898;SDS011;63458;48.210;16.338;2023-03-03T12:48:35;28.10;;;20.00;;
74898;SDS011;63458;48.210;16.338;2023-03-03T12:50:52;29.40;;;19.60;;
74898;SDS011;63458;48.210;16.338;2023-03-03T13:01:03;29.42;;;20.00;;
74898;SDS011;63458;48.210;16.338;2023-03-03T13:08:39;94.30;;;78.22;;
74898;SDS011;63458;48.210;16.338;2023-03-03T13:13:40;37.13;;;24.17;;
74898;SDS011;63458;48.210;16.338;2023-03-03T13:16:11;34.08;;;23.65;;
74898;SDS011;63458;48.210;16.338;2023-03-03T13:21:24;35.08;;;24.10;;
74898;SDS011;63458;48.210;16.338;2023-03-03T13:23:54;38.08;;;27.60;;
74898;SDS011;63458;48.210;16.338;2023-03-03T13:26:24;30.17;;;22.15;;
74898;SDS011;63458;48.210;16.338;2023-03-03T13:28:58;32.05;;;21.80;;
74898;SDS011;63458;48.210;16.338;2023-03-03T13:31:32;31.60;;;21.58;;
74898;SDS011;63458;48.210;16.338;2023-03-03T13:33:58;32.45;;;21.25;;
74898;SDS011;63458;48.210;16.338;2023-03-03T13:36:30;28.05;;;21.45;;
74898;SDS011;63458;48.210;16.338;2023-03-03T13:38:59;30.77;;;20.02;;
74898;SDS011;63458;48.210;16.338;2023-03-03T13:44:24;28.00;;;20.33;;
74898;SDS011;63458;48.210;16.338;2023-03-03T13:46:57;27.65;;;19.88;;
74898;SDS011;63458;48.210;16.338;2023-03-03T13:49:31;26.42;;;20.17;;
74898;SDS011;63458;48.210;16.338;2023-03-03T13:52:08;27.38;;;19.75;;
74898;SDS011;63458;48.210;16.338;2023-03-03T14:07:17;34.22;;;22.90;;
74898;SDS011;63458;48.210;16.338;2023-03-03T14:14:45;31.55;;;21.33;;
74898;SDS011;63458;48.210;16.338;2023-03-03T14:17:23;27.00;;;18.38;;
74898;SDS011;63458;48.210;16.338;2023-03-03T14:19:55;28.55;;;19.50;;
74898;SDS011;63458;48.210;16.338;2023-03-03T14:22:25;30.30;;;19.15;;
74898;SDS011;63458;48.210;16.338;2023-03-03T14:27:24;27.65;;;19.73;;
74898;SDS011;63458;48.210;16.338;2023-03-03T14:29:50;29.90;;;20.15;;
74898;SDS011;63458;48.210;16.338;2023-03-03T14:32:22;27.35;;;18.33;;
74898;SDS011;63458;48.210;16.338;2023-03-03T14:34:55;27.65;;;18.33;;
74898;SDS011;63458;48.210;16.338;2023-03-03T14:37:29;27.23;;;18.67;;
74898;SDS011;63458;48.210;16.338;2023-03-03T14:40:20;27.25;;;19.30;;
74898;SDS011;63458;48.210;16.338;2023-03-03T14:47:44;27.48;;;20.35;;
74898;SDS011;63458;48.210;16.338;2023-03-03T14:50:26;27.63;;;17.80;;
74898;SDS011;63458;48.210;16.338;2023-03-03T14:53:10;27.08;;;17.38;;
74898;SDS011;63458;48.210;16.338;2023-03-03T14:55:39;28.02;;;18.02;;
74898;SDS011;63458;48.210;16.338;2023-03-03T14:58:51;26.85;;;16.60;;
74898;SDS011;63458;48.210;16.338;2023-03-03T15:01:05;41.25;;;27.00;;
74898;SDS011;63458;48.210;16.338;2023-03-03T15:08:26;23.35;;;14.43;;
74898;SDS011;63458;48.210;16.338;2023-03-03T15:10:55;23.73;;;15.70;;
74898;SDS011;63458;48.210;16.338;2023-03-03T15:13:36;24.63;;;15.90;;
74898;SDS011;63458;48.210;16.338;2023-03-03T15:16:16;24.67;;;14.55;;
74898;SDS011;63458;48.210;16.338;2023-03-03T15:21:24;22.63;;;14.70;;
74898;SDS011;63458;48.210;16.338;2023-03-03T15:34:01;20.38;;;12.85;;
74898;SDS011;63458;48.210;16.338;2023-03-03T15:36:39;20.92;;;12.93;;
74898;SDS011;63458;48.210;16.338;2023-03-03T15:41:37;18.48;;;12.95;;
74898;SDS011;63458;48.210;16.338;2023-03-03T15:44:13;46.17;;;30.63;;
74898;SDS011;63458;48.210;16.338;2023-03-03T15:46:57;36.33;;;23.83;;
74898;SDS011;63458;48.210;16.338;2023-03-03T16:04:27;22.15;;;13.73;;
74898;SDS011;63458;48.210;16.338;2023-03-03T16:07:00;23.58;;;14.80;;
74898;SDS011;63458;48.210;16.338;2023-03-03T16:19:48;24.02;;;15.80;;
74898;SDS011;63458;48.210;16.338;2023-03-03T16:32:20;92.13;;;54.45;;
74898;SDS011;63458;48.210;16.338;2023-03-03T16:34:56;103.22;;;59.50;;
74898;SDS011;63458;48.210;16.338;2023-03-03T16:40:03;73.07;;;45.00;;
74898;SDS011;63458;48.210;16.338;2023-03-03T16:42:33;59.03;;;37.38;;
74898;SDS011;63458;48.210;16.338;2023-03-03T16:55:27;40.17;;;27.17;;
74898;SDS011;63458;48.210;16.338;2023-03-03T17:16:07;30.70;;;20.50;;
74898;SDS011;63458;48.210;16.338;2023-03-03T17:18:35;40.72;;;28.02;;
74898;SDS011;63458;48.210;16.338;2023-03-03T17:21:09;36.30;;;22.75;;
74898;SDS011;63458;48.210;16.338;2023-03-03T17:42:04;25.15;;;15.90;;
74898;SDS011;63458;48.210;16.338;2023-03-03T17:44:37;24.55;;;15.43;;
74898;SDS011;63458;48.210;16.338;2023-03-03T17:47:07;34.95;;;23.15;;
74898;SDS011;63458;48.210;16.338;2023-03-03T17:58:04;27.67;;;17.73;;
74898;SDS011;63458;48.210;16.338;2023-03-03T18:03:17;25.15;;;15.93;;
74898;SDS011;63458;48.210;16.338;2023-03-03T18:23:42;26.52;;;17.38;;
74898;SDS011;63458;48.210;16.338;2023-03-03T18:26:29;40.42;;;24.83;;
74898;SDS011;63458;48.210;16.338;2023-03-03T18:29:09;35.53;;;21.42;;
74898;SDS011;63458;48.210;16.338;2023-03-03T18:31:49;33.78;;;21.58;;
74898;SDS011;63458;48.210;16.338;2023-03-03T18:34:35;36.28;;;20.00;;
74898;SDS011;63458;48.210;16.338;2023-03-03T18:42:08;26.63;;;17.45;;
74898;SDS011;63458;48.210;16.338;2023-03-03T18:49:47;26.38;;;15.82;;
74898;SDS011;63458;48.210;16.338;2023-03-03T18:52:21;28.48;;;16.92;;
74898;SDS011;63458;48.210;16.338;2023-03-03T18:57:35;30.77;;;18.73;;
74898;SDS011;63458;48.210;16.338;2023-03-03T19:02:49;29.92;;;19.05;;
74898;SDS011;63458;48.210;16.338;2023-03-03T19:05:17;29.33;;;18.50;;
74898;SDS011;63458;48.210;16.338;2023-03-03T19:07:47;32.55;;;19.45;;
74898;SDS011;63458;48.210;16.338;2023-03-03T19:15:39;39.95;;;24.45;;
74898;SDS011;63458;48.210;16.338;2023-03-03T19:17:53;43.80;;;26.83;;
74898;SDS011;63458;48.210;16.338;2023-03-03T19:20:22;46.67;;;27.10;;
74898;SDS011;63458;48.210;16.338;2023-03-03T19:22:59;43.08;;;24.88;;
74898;SDS011;63458;48.210;16.338;2023-03-03T19:25:28;38.58;;;22.98;;
74898;SDS011;63458;48.210;16.338;2023-03-03T19:30:34;33.33;;;19.33;;
74898;SDS011;63458;48.210;16.338;2023-03-03T19:33:38;34.35;;;21.60;;
74898;SDS011;63458;48.210;16.338;2023-03-03T19:49:12;33.85;;;21.23;;
74898;SDS011;63458;48.210;16.338;2023-03-03T19:56:47;37.88;;;21.13;;
74898;SDS011;63458;48.210;16.338;2023-03-03T19:59:17;47.55;;;27.00;;
74898;SDS011;63458;48.210;16.338;2023-03-03T20:19:52;31.33;;;19.85;;
74898;SDS011;63458;48.210;16.338;2023-03-03T20:22:30;33.55;;;21.63;;
74898;SDS011;63458;48.210;16.338;2023-03-03T20:25:23;35.33;;;21.20;;
74898;SDS011;63458;48.210;16.338;2023-03-03T20:28:02;37.60;;;21.67;;
74898;SDS011;63458;48.210;16.338;2023-03-03T20:36:03;36.00;;;22.20;;
74898;SDS011;63458;48.210;16.338;2023-03-03T20:38:37;35.08;;;20.30;;
74898;SDS011;63458;48.210;16.338;2023-03-03T20:51:55;31.85;;;20.38;;
74898;SDS011;63458;48.210;16.338;2023-03-03T20:59:44;31.48;;;19.40;;
74898;SDS011;63458;48.210;16.338;2023-03-03T21:04:39;154.48;;;80.30;;
74898;SDS011;63458;48.210;16.338;2023-03-03T21:07:05;136.45;;;73.85;;
74898;SDS011;63458;48.210;16.338;2023-03-03T21:11:58;35.95;;;22.50;;
74898;SDS011;63458;48.210;16.338;2023-03-03T21:14:26;36.78;;;21.80;;
74898;SDS011;63458;48.210;16.338;2023-03-03T21:16:53;33.72;;;21.52;;
74898;SDS011;63458;48.210;16.338;2023-03-03T21:19:31;42.75;;;28.27;;
74898;SDS011;63458;48.210;16.338;2023-03-03T21:21:58;34.83;;;21.08;;
74898;SDS011;63458;48.210;16.338;2023-03-03T21:24:57;39.08;;;24.75;;